Time;durP1;ratioP1;P1;durP2;ratioP2;P2;SDS_P1;SDS_P2;PMS_P1;PMS_P2;Temp;Humidity;BMP_temperature;BMP_pressure;BME280_temperature;BME280_humidity;BME280_pressure;Samples;Min_cycle;Max_cycle;Signal;HPM_P1;HPM_P2
2022/08/12 00:43:37;;;;;;;2.83;0.98;;;;;;;21.07;58.82;101847.75;6223350;28;20061;-76
2022/08/12 00:46:47;;;;;;;0.88;0.73;;;;;;;21.02;58.72;101851.66;6222669;28;20081;-76
2022/08/12 00:49:49;;;;;;;1.05;0.90;;;;;;;20.96;59.39;101849.47;6222849;28;20050;-77
2022/08/12 00:52:52;;;;;;;1.70;0.77;;;;;;;20.86;59.77;101837.81;6222945;28;20076;-76
2022/08/12 00:55:56;;;;;;;2.13;0.95;;;;;;;20.82;60.21;101840.88;6222473;28;20429;-76
2022/08/12 00:59:03;;;;;;;1.00;0.90;;;;;;;20.81;59.99;101847.19;6222630;28;20050;-76
2022/08/12 01:02:05;;;;;;;4.72;1.00;;;;;;;20.79;59.69;101847.28;6222630;28;20050;-76
2022/08/12 01:11:49;;;;;;;2.20;0.90;;;;;;;20.72;60.01;101848.75;6222448;28;20046;-76
2022/08/12 01:14:53;;;;;;;0.80;0.75;;;;;;;20.68;60.46;101844.63;6222296;28;20413;-76
2022/08/12 01:17:55;;;;;;;5.68;1.38;;;;;;;20.61;60.32;101844.25;6222248;28;20057;-76
2022/08/12 01:21:15;;;;;;;4.50;1.08;;;;;;;20.53;60.91;101844.00;6222406;28;20050;-76
2022/08/12 01:24:43;;;;;;;1.02;0.93;;;;;;;20.47;61.56;101850.66;6222553;28;20053;-76
2022/08/12 01:27:46;;;;;;;1.92;1.23;;;;;;;20.46;61.43;101856.09;6222575;28;20486;-76
2022/08/12 01:30:49;;;;;;;1.27;0.93;;;;;;;20.42;61.66;101859.97;6221931;28;20060;-76
2022/08/12 01:33:59;;;;;;;1.63;1.15;;;;;;;20.39;61.56;101857.53;6222279;28;20056;-77
2022/08/12 01:37:02;;;;;;;2.38;1.20;;;;;;;20.36;62.01;101855.13;6235577;28;20041;-76
2022/08/12 01:40:08;;;;;;;4.00;0.95;;;;;;;20.32;62.07;101854.50;6236003;28;20050;-76
2022/08/12 01:43:16;;;;;;;2.05;1.50;;;;;;;20.27;62.43;101844.16;6247506;28;20049;-76
2022/08/12 01:46:25;;;;;;;1.48;1.05;;;;;;;20.22;62.31;101846.34;6251326;28;20421;-76
2022/08/12 01:49:53;;;;;;;2.08;0.88;;;;;;;20.14;62.97;101847.91;6243278;28;20054;-77
2022/08/12 01:53:05;;;;;;;1.75;1.17;;;;;;;20.10;63.47;101843.75;6226932;28;20054;-76
2022/08/12 01:56:10;;;;;;;2.00;0.90;;;;;;;20.08;63.18;101843.88;6226747;28;20053;-77
2022/08/12 02:02:39;;;;;;;3.10;0.80;;;;;;;19.93;64.04;101842.34;6226695;28;20054;-76
2022/08/12 02:12:48;;;;;;;2.42;0.90;;;;;;;19.83;64.77;101836.00;6226221;28;20054;-76
2022/08/12 02:15:56;;;;;;;1.48;0.90;;;;;;;19.82;64.74;101839.66;6226265;28;20064;-76
2022/08/12 02:19:11;;;;;;;2.20;2.00;;;;;;;19.79;64.36;101843.38;6226594;28;20520;-77
2022/08/12 02:22:26;;;;;;;2.55;1.30;;;;;;;19.79;64.67;101838.06;6226287;28;20296;-76
2022/08/12 02:25:33;;;;;;;3.63;1.00;;;;;;;19.72;64.97;101843.00;6226069;28;20133;-76
2022/08/12 02:28:37;;;;;;;2.33;1.48;;;;;;;19.68;64.73;101836.19;6225952;28;20042;-76
2022/08/12 02:31:39;;;;;;;1.05;1.00;;;;;;;19.66;65.51;101832.78;6224412;28;20061;-76
2022/08/12 02:34:43;;;;;;;1.55;1.00;;;;;;;19.64;65.35;101836.53;6223944;28;20068;-76
2022/08/12 02:37:46;;;;;;;1.20;1.00;;;;;;;19.58;65.80;101836.97;6236156;28;20076;-76
2022/08/12 02:40:53;;;;;;;2.40;1.55;;;;;;;19.49;65.89;101839.34;6236339;28;20046;-76
2022/08/12 02:44:00;;;;;;;1.35;1.15;;;;;;;19.42;66.49;101843.41;6234729;28;20061;-78
2022/08/12 02:47:04;;;;;;;1.30;1.05;;;;;;;19.36;66.32;101835.03;6232210;28;20061;-76
2022/08/12 02:50:09;;;;;;;1.42;1.20;;;;;;;19.32;67.00;101836.22;6232591;28;20049;-76
2022/08/12 02:53:11;;;;;;;2.70;1.13;;;;;;;19.26;67.34;101832.19;6233814;28;20070;-77
2022/08/12 02:56:13;;;;;;;2.92;1.20;;;;;;;19.20;67.71;101835.28;6233629;28;20559;-78
2022/08/12 02:59:16;;;;;;;6.53;1.00;;;;;;;19.18;67.42;101831.88;6235790;28;20053;-77
2022/08/12 03:02:21;;;;;;;4.63;1.00;;;;;;;19.16;67.65;101834.63;6234305;28;20045;-77
2022/08/12 03:05:24;;;;;;;3.28;1.35;;;;;;;19.17;67.40;101832.84;6234282;28;20053;-76
2022/08/12 03:08:30;;;;;;;1.80;1.20;;;;;;;19.11;67.28;101836.78;6235432;28;20046;-76
2022/08/12 03:11:38;;;;;;;0.95;0.90;;;;;;;19.10;68.14;101829.75;6230287;28;20053;-76
2022/08/12 03:14:42;;;;;;;1.50;1.15;;;;;;;19.08;67.76;101833.50;6234557;28;20052;-76
2022/08/12 03:17:51;;;;;;;1.35;1.13;;;;;;;19.08;68.12;101828.19;6232771;28;20055;-77
2022/08/12 03:20:53;;;;;;;1.70;0.90;;;;;;;19.08;67.98;101834.38;6227380;28;20559;-76
2022/08/12 03:23:56;;;;;;;1.60;1.20;;;;;;;19.04;68.15;101832.88;6233193;28;20045;-76
2022/08/12 03:27:02;;;;;;;3.55;1.30;;;;;;;18.99;68.21;101829.69;6233600;28;20121;-76
2022/08/12 03:30:06;;;;;;;1.30;1.10;;;;;;;18.95;68.52;101836.19;6198588;28;1005440;-76
2022/08/12 03:33:09;;;;;;;2.03;1.40;;;;;;;18.90;69.14;101830.34;6231850;28;20293;-76
2022/08/12 03:36:16;;;;;;;2.67;1.50;;;;;;;18.85;68.97;101819.16;6235445;28;20128;-76
2022/08/12 03:39:26;;;;;;;3.15;1.55;;;;;;;18.80;69.54;101827.47;6235734;28;20046;-76
2022/08/12 03:42:39;;;;;;;2.97;1.33;;;;;;;18.72;69.49;101829.84;6234223;28;20597;-76
2022/08/12 04:02:21;;;;;;;3.97;1.02;;;;;;;18.46;71.37;101827.13;6223783;28;20054;-76
2022/08/12 04:05:22;;;;;;;3.20;1.40;;;;;;;18.42;72.13;101830.13;6223982;28;20046;-76
2022/08/12 04:08:25;;;;;;;2.15;1.30;;;;;;;18.37;71.54;101825.13;6223983;28;20046;-76
2022/08/12 04:14:46;;;;;;;2.17;1.30;;;;;;;18.36;71.79;101822.56;6223788;28;20133;-77
2022/08/12 04:17:49;;;;;;;1.83;1.20;;;;;;;18.36;72.29;101830.56;6223514;28;20041;-76
2022/08/12 04:20:51;;;;;;;3.70;1.40;;;;;;;18.36;72.78;101827.91;6223387;28;20050;-76
2022/08/12 04:23:52;;;;;;;2.28;1.50;;;;;;;18.31;73.02;101824.69;6223274;28;20068;-76
2022/08/12 04:26:54;;;;;;;1.25;1.08;;;;;;;18.33;72.52;101823.63;6223765;28;20187;-76
2022/08/12 04:29:57;;;;;;;1.95;1.23;;;;;;;18.34;72.55;101820.00;6223342;28;20057;-76
2022/08/12 04:32:59;;;;;;;1.92;1.30;;;;;;;18.33;73.05;101825.44;6223396;28;20046;-76
2022/08/12 04:36:01;;;;;;;1.67;1.30;;;;;;;18.34;72.48;101822.66;6223065;28;20054;-76
2022/08/12 04:39:04;;;;;;;4.03;1.30;;;;;;;18.38;72.77;101825.97;6223006;28;20057;-76
2022/08/12 04:42:06;;;;;;;2.60;1.20;;;;;;;18.33;72.07;101820.13;6223432;28;20057;-76
2022/08/12 04:45:09;;;;;;;3.20;1.48;;;;;;;18.31;73.32;101820.22;6223120;28;20057;-76
2022/08/12 04:48:11;;;;;;;5.25;1.83;;;;;;;18.29;73.23;101821.28;6223198;28;20053;-76
2022/08/12 04:51:13;;;;;;;1.92;1.42;;;;;;;18.27;73.34;101817.88;6222789;28;20053;-76
2022/08/12 04:54:14;;;;;;;1.88;1.42;;;;;;;18.25;73.62;101817.97;6222913;28;20061;-76
2022/08/12 04:57:16;;;;;;;2.22;1.70;;;;;;;18.24;74.44;101821.59;6222622;28;20065;-76
2022/08/12 05:00:17;;;;;;;2.55;1.70;;;;;;;18.27;74.14;101821.41;6222787;28;20065;-76
2022/08/12 05:03:20;;;;;;;3.05;1.85;;;;;;;18.27;74.56;101825.88;6222970;28;20057;-76
2022/08/12 05:06:21;;;;;;;3.85;1.67;;;;;;;18.30;74.60;101830.97;6222666;28;20061;-76
2022/08/12 05:09:23;;;;;;;3.83;1.63;;;;;;;18.35;73.97;101828.81;6222531;28;20498;-76
2022/08/12 05:12:26;;;;;;;1.70;1.30;;;;;;;18.39;73.34;101830.31;6222550;28;20052;-76
2022/08/12 05:15:28;;;;;;;2.08;1.40;;;;;;;18.43;74.17;101827.34;6222389;28;20058;-76
2022/08/12 05:18:30;;;;;;;1.92;1.27;;;;;;;18.46;73.81;101824.47;6222296;28;20049;-76
2022/08/12 05:21:32;;;;;;;2.05;1.38;;;;;;;18.45;74.12;101828.09;6222256;28;20054;-76
2022/08/12 05:24:33;;;;;;;1.45;1.05;;;;;;;18.48;73.76;101835.00;6222537;28;20046;-76
2022/08/12 05:27:34;;;;;;;1.65;1.50;;;;;;;18.50;73.51;101833.97;6222446;28;20142;-75
2022/08/12 05:30:36;;;;;;;5.65;1.80;;;;;;;18.50;74.15;101838.44;6222124;28;20399;-78
2022/08/12 05:33:39;;;;;;;4.53;1.35;;;;;;;18.54;73.74;101841.75;6222555;28;20046;-76
2022/08/12 05:36:42;;;;;;;2.67;1.33;;;;;;;18.56;73.54;101837.16;6222173;28;20054;-76
2022/08/12 05:39:44;;;;;;;2.42;1.40;;;;;;;18.62;73.71;101840.25;6222302;28;20050;-76
2022/08/12 05:42:46;;;;;;;5.32;1.40;;;;;;;18.66;73.34;101843.53;6222255;28;20501;-75
2022/08/12 05:45:48;;;;;;;2.30;1.92;;;;;;;18.67;73.23;101832.78;6222206;28;20054;-76
2022/08/12 05:48:53;;;;;;;2.30;1.40;;;;;;;18.71;72.90;101846.75;6222038;28;20045;-76
2022/08/12 05:51:54;;;;;;;6.82;1.55;;;;;;;18.73;73.55;101842.19;6221733;28;20050;-76
2022/08/12 05:54:56;;;;;;;1.40;1.30;;;;;;;18.78;73.49;101834.72;6221795;28;20120;-76
2022/08/12 05:57:57;;;;;;;2.08;1.27;;;;;;;18.85;73.06;101838.66;6221951;28;20104;-76
2022/08/12 06:00:59;;;;;;;2.03;1.58;;;;;;;18.87;72.83;101841.22;6222059;28;20456;-75
2022/08/12 06:04:03;;;;;;;4.70;1.38;;;;;;;18.95;71.52;101839.72;6221872;28;20099;-76
2022/08/12 06:07:06;;;;;;;4.65;1.73;;;;;;;19.04;72.22;101832.03;6222055;28;20050;-76
2022/08/12 06:10:08;;;;;;;5.97;1.40;;;;;;;19.08;71.35;101839.69;6221561;28;20137;-76
2022/08/12 06:13:10;;;;;;;3.17;1.33;;;;;;;19.13;71.02;101850.88;6222046;28;20513;-76
2022/08/12 06:16:13;;;;;;;2.30;1.35;;;;;;;19.19;69.33;101847.75;6221451;28;20053;-75
2022/08/12 06:19:16;;;;;;;2.33;1.45;;;;;;;19.22;69.84;101844.88;6221852;28;20123;-75
2022/08/12 06:22:17;;;;;;;4.38;1.40;;;;;;;19.26;68.97;101848.19;6221646;28;20439;-76
2022/08/12 06:25:19;;;;;;;1.77;1.35;;;;;;;19.32;68.68;101847.72;6225780;28;20046;-76
2022/08/12 06:28:21;;;;;;;2.55;1.40;;;;;;;19.39;67.02;101848.09;6233755;28;20048;-75
2022/08/12 06:31:22;;;;;;;3.38;1.63;;;;;;;19.43;66.84;101847.78;6241491;28;20053;-76
2022/08/12 06:34:35;;;;;;;2.47;1.27;;;;;;;19.52;66.81;101851.59;6250507;28;20050;-75
2022/08/12 06:37:40;;;;;;;4.65;2.03;;;;;;;19.57;66.90;101857.44;6250055;28;20056;-76
2022/08/12 06:43:58;;;;;;;3.28;1.77;;;;;;;19.68;65.90;101846.88;6197740;28;20076;-75
2022/08/12 06:46:59;;;;;;;2.30;1.42;;;;;;;19.72;65.10;101851.00;6242471;28;20452;-75
2022/08/12 06:50:02;;;;;;;3.28;1.55;;;;;;;19.81;64.74;101846.81;6243868;28;20041;-75
2022/08/12 06:53:04;;;;;;;1.92;1.48;;;;;;;19.85;66.04;101848.28;6242179;28;20057;-76
2022/08/12 06:56:05;;;;;;;3.05;1.67;;;;;;;19.90;63.16;101846.13;6247997;28;20060;-76
2022/08/12 06:59:07;;;;;;;3.50;1.30;;;;;;;19.97;62.98;101850.00;6249359;28;20041;-75
2022/08/12 07:02:08;;;;;;;1.88;1.67;;;;;;;20.03;63.42;101851.38;6248303;28;20053;-75
2022/08/12 07:05:11;;;;;;;2.70;1.70;;;;;;;20.08;62.90;101848.38;6248795;28;20058;-74
2022/08/12 07:08:15;;;;;;;2.53;1.30;;;;;;;20.15;63.25;101846.91;6234309;28;20544;-74
2022/08/12 07:11:17;;;;;;;2.00;1.60;;;;;;;20.21;63.60;101851.78;6233902;28;20070;-75
2022/08/12 07:14:18;;;;;;;2.08;1.52;;;;;;;20.25;63.43;101858.59;6233762;28;20057;-75
2022/08/12 07:17:19;;;;;;;6.35;2.05;;;;;;;20.30;63.13;101864.41;6233951;28;20049;-75
2022/08/12 07:20:22;;;;;;;2.50;1.75;;;;;;;20.39;61.80;101860.19;6229228;28;20046;-74
2022/08/12 07:23:24;;;;;;;2.53;1.40;;;;;;;20.46;61.32;101864.97;6224628;28;20172;-74
2022/08/12 07:26:25;;;;;;;3.88;1.80;;;;;;;20.49;62.34;101869.25;6224844;28;20619;-75
2022/08/12 07:29:27;;;;;;;5.10;1.60;;;;;;;20.55;62.10;101868.78;6248817;28;20049;-75
2022/08/12 07:32:28;;;;;;;2.85;1.50;;;;;;;20.61;61.53;101862.09;6249514;28;20068;-75
2022/08/12 07:35:32;;;;;;;2.42;1.55;;;;;;;20.72;61.31;101872.81;6247458;28;20084;-76
2022/08/12 07:38:35;;;;;;;2.65;1.67;;;;;;;20.80;60.88;101867.69;6249308;28;20048;-76
2022/08/12 07:41:37;;;;;;;1.98;1.33;;;;;;;20.87;60.46;101874.25;6248835;28;20049;-74
2022/08/12 07:44:39;;;;;;;2.08;1.60;;;;;;;20.95;60.31;101873.66;6239788;28;20050;-75
2022/08/12 07:47:42;;;;;;;2.97;1.45;;;;;;;21.01;60.45;101871.34;6224425;28;20050;-76
2022/08/12 07:50:44;;;;;;;1.98;1.40;;;;;;;21.04;60.35;101870.25;6224102;28;20054;-76
2022/08/12 07:53:47;;;;;;;3.75;1.63;;;;;;;21.11;60.25;101868.78;6224327;28;20050;-75
2022/08/12 07:56:48;;;;;;;3.03;1.55;;;;;;;21.19;59.42;101873.53;6223842;28;20422;-75
2022/08/12 07:59:49;;;;;;;4.30;1.55;;;;;;;21.25;59.22;101867.66;6224062;28;20052;-75
2022/08/12 08:02:53;;;;;;;2.17;1.23;;;;;;;21.27;59.01;101868.41;6223970;28;20072;-75
2022/08/12 08:05:57;;;;;;;3.28;1.45;;;;;;;21.29;58.83;101867.31;6223608;28;20054;-76
2022/08/12 08:08:59;;;;;;;4.32;1.45;;;;;;;21.32;58.97;101868.91;6223702;28;20123;-75
2022/08/12 08:15:19;;;;;;;1.95;1.40;;;;;;;21.54;57.58;101865.34;6223321;28;20049;-75
2022/08/12 08:18:20;;;;;;;2.08;1.48;;;;;;;21.60;58.05;101864.84;6223526;28;20054;-75
2022/08/12 08:21:26;;;;;;;2.67;1.65;;;;;;;21.61;58.04;101861.19;6223270;28;20061;-76
2022/08/12 08:24:30;;;;;;;2.17;1.55;;;;;;;21.68;57.14;101866.91;6223482;28;20061;-75
2022/08/12 08:27:44;;;;;;;4.68;1.60;;;;;;;21.82;56.30;101855.88;6223179;28;20060;-74
2022/08/12 08:30:48;;;;;;;2.25;1.40;;;;;;;21.93;55.34;101863.00;6223103;28;20050;-75
2022/08/12 08:33:49;;;;;;;1.48;1.25;;;;;;;22.04;54.75;101854.94;6222986;28;20049;-75
2022/08/12 08:36:52;;;;;;;1.75;1.35;;;;;;;22.14;53.39;101855.91;6223199;28;20501;-75
2022/08/12 08:42:35;;;;;;;2.40;1.40;;;;;;;22.21;52.78;101848.19;6222886;28;20508;-75
2022/08/12 08:43:15;;;;;;;4.40;1.60;;;;;;;22.33;51.99;101846.28;6222890;28;20081;-75
2022/08/12 08:46:16;;;;;;;2.17;1.50;;;;;;;22.42;51.07;101843.66;6222373;28;20100;-75
2022/08/12 08:49:18;;;;;;;2.60;1.30;;;;;;;22.69;48.40;101850.31;6223020;28;20046;-75
2022/08/12 08:52:24;;;;;;;2.05;1.30;;;;;;;22.92;46.19;101849.16;6222890;28;20116;-76
2022/08/12 08:55:25;;;;;;;1.13;1.00;;;;;;;23.02;46.98;101844.69;6222780;28;20093;-74
2022/08/12 08:58:27;;;;;;;2.22;1.33;;;;;;;23.07;48.75;101846.94;6222628;28;20470;-74
2022/08/12 09:01:29;;;;;;;1.20;1.10;;;;;;;23.20;45.76;101839.50;6222755;28;20068;-75
2022/08/12 09:04:30;;;;;;;1.80;1.40;;;;;;;23.28;44.11;101846.88;6222485;28;20049;-75
2022/08/12 09:07:42;;;;;;;2.05;0.95;;;;;;;23.36;43.52;101843.50;6222719;28;20053;-75
2022/08/12 09:10:43;;;;;;;2.03;1.58;;;;;;;23.50;43.34;101840.44;6222409;28;20060;-75
2022/08/12 09:13:43;;;;;;;1.58;1.10;;;;;;;23.60;43.33;101838.59;6222190;28;20053;-76
2022/08/12 09:16:45;;;;;;;2.88;1.20;;;;;;;23.65;42.45;101835.53;6222485;28;20081;-75
2022/08/12 09:19:46;;;;;;;1.50;1.08;;;;;;;23.70;42.73;101838.63;6222003;28;20054;-75
2022/08/12 09:22:49;;;;;;;1.65;1.35;;;;;;;23.77;41.80;101831.72;6222561;28;20047;-75
2022/08/12 09:25:50;;;;;;;1.27;1.00;;;;;;;23.83;42.66;101833.81;6222168;28;20057;-75
2022/08/12 09:28:52;;;;;;;3.85;1.17;;;;;;;23.94;42.34;101835.53;6222306;28;20050;-75
2022/08/12 09:31:53;;;;;;;1.70;1.00;;;;;;;23.96;40.39;101825.50;6222400;28;20054;-76
2022/08/12 09:34:54;;;;;;;1.00;0.80;;;;;;;24.09;40.39;101820.66;6222277;28;20060;-75
2022/08/12 09:37:57;;;;;;;1.98;1.33;;;;;;;24.24;39.86;101808.47;6222391;28;20060;-76
2022/08/12 09:41:00;;;;;;;1.40;0.75;;;;;;;24.27;39.49;101813.56;6222203;28;20053;-77
2022/08/12 09:47:21;;;;;;;1.52;1.02;;;;;;;24.55;38.58;101809.13;6222036;28;20053;-76
2022/08/12 09:50:22;;;;;;;0.70;0.70;;;;;;;24.65;38.68;101814.44;6222001;28;20046;-75
2022/08/12 09:53:26;;;;;;;1.30;0.90;;;;;;;24.69;38.26;101801.56;6221853;28;20050;-75
2022/08/12 09:56:30;;;;;;;2.97;1.67;;;;;;;24.80;37.48;101799.53;6221745;28;20057;-75
2022/08/12 09:59:35;;;;;;;1.20;1.00;;;;;;;24.97;37.17;101800.56;6225173;28;20045;-76
2022/08/12 10:02:37;;;;;;;1.20;0.90;;;;;;;25.10;36.70;101804.78;6226861;28;20147;-76
2022/08/12 10:05:41;;;;;;;1.02;0.90;;;;;;;25.20;36.21;101794.81;6226444;28;20109;-76
2022/08/12 10:08:43;;;;;;;3.53;0.90;;;;;;;25.37;36.94;101793.97;6226886;28;20046;-74
2022/08/12 10:15:04;;;;;;;2.47;1.10;;;;;;;25.43;35.12;101777.22;6226221;28;20077;-75
2022/08/12 10:18:06;;;;;;;1.50;0.98;;;;;;;25.44;35.44;101781.63;6229952;28;20061;-75
2022/08/12 10:21:09;;;;;;;2.90;1.00;;;;;;;25.58;34.79;101768.63;6250703;28;20042;-76
2022/08/12 10:24:14;;;;;;;1.17;0.80;;;;;;;25.59;33.61;101775.69;6250539;28;20060;-76
2022/08/12 10:30:35;;;;;;;1.67;0.90;;;;;;;25.78;33.00;101754.00;6250492;28;20049;-76
2022/08/12 10:33:36;;;;;;;1.02;0.80;;;;;;;25.98;34.72;101760.00;6250716;28;20050;-75
2022/08/12 10:36:38;;;;;;;1.65;1.10;;;;;;;26.05;34.40;101753.00;6250302;28;20513;-76
2022/08/12 10:39:41;;;;;;;3.03;1.20;;;;;;;26.13;33.39;101742.28;6250432;28;20055;-76
2022/08/12 10:46:01;;;;;;;0.90;0.90;;;;;;;26.17;34.17;101750.91;6250459;28;20053;-76
2022/08/12 10:49:02;;;;;;;1.20;1.00;;;;;;;26.27;33.96;101743.53;6250115;28;20513;-76
2022/08/12 10:52:05;;;;;;;1.88;1.10;;;;;;;26.46;32.29;101740.63;6250061;28;20045;-76
2022/08/12 10:55:08;;;;;;;1.02;0.80;;;;;;;26.62;31.23;101745.25;6251018;28;20053;-79
2022/08/12 10:58:10;;;;;;;1.80;1.02;;;;;;;26.65;32.44;101742.22;6228604;28;20082;-76
2022/08/12 11:01:11;;;;;;;1.80;0.95;;;;;;;26.85;32.73;101741.97;6225257;28;20413;-76
2022/08/12 11:04:13;;;;;;;1.85;1.00;;;;;;;27.05;31.48;101735.25;6225305;28;20046;-76
2022/08/12 11:07:14;;;;;;;2.65;0.90;;;;;;;27.15;31.77;101719.78;6225484;28;20050;-76
2022/08/12 11:10:17;;;;;;;3.15;1.00;;;;;;;27.11;32.24;101721.13;6225204;28;20049;-76
2022/08/12 11:13:19;;;;;;;1.17;0.90;;;;;;;27.16;31.64;101717.94;6225395;28;20060;-77
2022/08/12 11:16:20;;;;;;;0.68;0.68;;;;;;;27.48;31.29;101717.09;6224723;28;20497;-76
2022/08/12 11:19:21;;;;;;;1.15;1.05;;;;;;;27.73;29.77;101720.69;6238925;28;20049;-75
2022/08/12 11:22:23;;;;;;;1.40;1.08;;;;;;;27.78;30.32;101711.03;6249442;28;20493;-77
2022/08/12 11:25:26;;;;;;;1.15;0.88;;;;;;;27.84;29.46;101714.06;6235761;28;20046;-76
2022/08/12 11:28:27;;;;;;;0.95;0.77;;;;;;;27.87;29.54;101709.16;6240678;28;20053;-76
2022/08/12 11:31:28;;;;;;;0.80;0.80;;;;;;;27.96;29.10;101710.00;6231050;28;20046;-76
2022/08/12 11:34:30;;;;;;;2.58;1.25;;;;;;;28.16;29.63;101703.19;6237144;28;20049;-74
2022/08/12 11:37:32;;;;;;;0.77;0.77;;;;;;;28.32;28.85;101707.69;6225540;28;20049;-76
2022/08/12 11:40:35;;;;;;;1.55;1.17;;;;;;;28.68;29.74;101707.22;6232717;28;20054;-75
2022/08/12 11:43:36;;;;;;;2.50;1.02;;;;;;;29.11;27.10;101711.19;6248848;28;20468;-75
2022/08/12 11:46:39;;;;;;;2.03;1.00;;;;;;;29.44;27.19;101695.56;6249163;28;20052;-76
2022/08/12 11:49:41;;;;;;;0.82;0.82;;;;;;;29.58;27.13;101693.94;6248603;28;20052;-75
2022/08/12 11:52:42;;;;;;;1.35;0.82;;;;;;;29.67;27.59;101694.72;6243331;28;20448;-74
2022/08/12 11:55:45;;;;;;;1.08;0.85;;;;;;;29.82;27.57;101696.41;6235495;28;20060;-76
2022/08/12 11:58:47;;;;;;;1.02;0.88;;;;;;;30.14;25.89;101690.84;6233758;28;20062;-76
2022/08/12 12:01:49;;;;;;;1.10;0.85;;;;;;;30.37;26.49;101690.72;6234285;28;20707;-76
2022/08/12 12:04:50;;;;;;;1.25;0.85;;;;;;;30.56;25.54;101680.09;6235382;28;20061;-76
2022/08/12 12:07:51;;;;;;;0.95;0.80;;;;;;;30.74;25.75;101676.16;6226041;28;20053;-76
2022/08/12 12:10:54;;;;;;;1.63;0.85;;;;;;;30.94;24.67;101666.38;6244973;28;20042;-75
2022/08/12 12:13:55;;;;;;;1.25;0.85;;;;;;;31.11;25.21;101666.09;6239338;28;20046;-76
2022/08/12 12:16:57;;;;;;;0.73;0.73;;;;;;;31.32;25.41;101664.22;6223208;28;20417;-76
2022/08/12 12:19:58;;;;;;;0.75;0.65;;;;;;;31.42;24.36;101666.59;6223335;28;20045;-76
2022/08/12 12:22:59;;;;;;;6.97;0.90;;;;;;;31.42;23.78;101660.31;6223037;28;20058;-76
2022/08/12 12:26:03;;;;;;;1.65;0.98;;;;;;;31.43;24.07;101660.16;6223945;28;20050;-77
2022/08/12 12:29:04;;;;;;;1.05;0.80;;;;;;;31.55;24.36;101665.88;6231167;28;20045;-76
2022/08/12 12:32:05;;;;;;;1.00;0.85;;;;;;;31.70;23.70;101658.44;6236061;28;20057;-76
2022/08/12 12:35:08;;;;;;;1.23;0.80;;;;;;;31.81;23.60;101657.91;6224958;28;20050;-77
2022/08/12 12:38:11;;;;;;;0.70;0.70;;;;;;;31.98;23.79;101654.91;6247501;28;20511;-76
2022/08/12 12:41:13;;;;;;;1.20;0.80;;;;;;;32.17;23.90;101653.31;6247508;28;20069;-74
2022/08/12 12:44:15;;;;;;;1.20;0.80;;;;;;;32.30;23.53;101650.66;6241410;28;20409;-74
2022/08/12 12:47:16;;;;;;;1.38;0.90;;;;;;;32.35;23.24;101644.59;6223177;28;20054;-74
2022/08/12 12:50:17;;;;;;;0.70;0.63;;;;;;;32.39;22.79;101646.75;6223887;28;20057;-75
2022/08/12 12:53:22;;;;;;;2.08;0.80;;;;;;;32.60;22.15;101642.19;6238606;28;20061;-75
2022/08/12 12:56:25;;;;;;;0.77;0.77;;;;;;;32.73;21.73;101637.59;6247104;28;20184;-76
2022/08/12 12:59:27;;;;;;;1.02;0.80;;;;;;;33.00;21.74;101630.34;6247123;28;20420;-76
2022/08/12 13:02:29;;;;;;;2.05;0.90;;;;;;;33.02;21.81;101633.72;6247308;28;20052;-75
2022/08/12 13:05:34;;;;;;;0.75;0.70;;;;;;;33.01;21.12;101633.91;6247314;28;20053;-77
2022/08/12 13:08:35;;;;;;;0.80;0.80;;;;;;;33.21;21.25;101629.31;6247138;28;20045;-76
2022/08/12 13:11:39;;;;;;;0.77;0.77;;;;;;;33.20;20.91;101632.22;6247109;28;20046;-76
2022/08/12 13:14:40;;;;;;;0.95;0.75;;;;;;;33.44;21.50;101633.50;6247028;28;20123;-76
2022/08/12 13:17:48;;;;;;;0.52;0.52;;;;;;;33.47;21.79;101624.88;6246933;28;20187;-77
2022/08/12 13:20:49;;;;;;;0.97;0.70;;;;;;;33.32;22.06;101627.81;6246928;28;20053;-76
2022/08/12 13:23:53;;;;;;;0.68;0.68;;;;;;;33.51;21.31;101634.31;6246567;28;20527;-77
2022/08/12 13:26:55;;;;;;;1.23;0.68;;;;;;;33.71;19.67;101628.84;6246843;28;20448;-76
2022/08/12 13:29:57;;;;;;;0.90;0.85;;;;;;;33.85;20.26;101640.56;6246399;28;20049;-77
2022/08/12 13:32:58;;;;;;;2.08;0.73;;;;;;;33.85;19.24;101625.03;6249589;28;20115;-77
2022/08/12 13:36:03;;;;;;;7.60;1.17;;;;;;;33.97;20.03;101631.50;6251734;28;20509;-76
2022/08/12 13:39:04;;;;;;;0.68;0.60;;;;;;;33.85;19.45;101627.75;6251872;28;20130;-76
2022/08/12 13:42:08;;;;;;;0.82;0.70;;;;;;;34.03;19.71;101625.22;6239918;28;20045;-76
2022/08/12 13:45:10;;;;;;;0.77;0.70;;;;;;;34.18;19.31;101616.75;6237737;28;20054;-75
2022/08/12 13:48:11;;;;;;;1.13;0.93;;;;;;;34.20;19.43;101617.38;6238044;28;20502;-77
2022/08/12 13:51:13;;;;;;;1.45;0.75;;;;;;;34.37;18.97;101614.97;6246601;28;20049;-76
2022/08/12 13:54:19;;;;;;;1.48;0.80;;;;;;;34.37;18.83;101614.97;6251707;28;20050;-78
2022/08/12 13:57:21;;;;;;;0.60;0.60;;;;;;;34.29;18.53;101607.03;6252792;28;20248;-78
2022/08/12 14:00:25;;;;;;;0.52;0.50;;;;;;;34.31;18.98;101596.75;6252395;28;20041;-78
2022/08/12 14:03:26;;;;;;;0.80;0.77;;;;;;;34.47;18.56;101598.97;6249179;28;20508;-79
2022/08/12 14:06:28;;;;;;;0.95;0.85;;;;;;;34.61;17.78;101601.63;6237513;28;20049;-78
2022/08/12 14:09:30;;;;;;;0.90;0.80;;;;;;;34.77;18.78;101598.34;6235396;28;20045;-77
2022/08/12 14:12:39;;;;;;;1.10;0.77;;;;;;;34.93;18.55;101597.81;6235993;28;20140;-78
2022/08/12 14:15:42;;;;;;;0.75;0.60;;;;;;;34.62;18.16;101586.94;6227800;28;20045;-77
2022/08/12 14:18:44;;;;;;;2.17;0.70;;;;;;;34.49;18.76;101579.66;6227900;28;20053;-79
2022/08/12 14:21:48;;;;;;;1.40;0.93;;;;;;;34.65;18.95;101584.56;6227814;28;20053;-78
2022/08/12 14:24:51;;;;;;;1.05;0.80;;;;;;;34.81;19.68;101577.75;6227465;28;20054;-78
2022/08/12 14:27:54;;;;;;;1.50;0.70;;;;;;;34.92;18.60;101570.72;6227351;28;20049;-79
2022/08/12 14:30:59;;;;;;;0.93;0.80;;;;;;;34.96;18.51;101578.25;6227726;28;20053;-78
2022/08/12 14:34:02;;;;;;;0.80;0.60;;;;;;;34.95;17.97;101579.31;6227844;28;20049;-78
2022/08/12 14:37:05;;;;;;;0.60;0.52;;;;;;;35.02;18.01;101565.59;6227523;28;20417;-78
2022/08/12 14:40:08;;;;;;;2.70;0.68;;;;;;;34.99;18.86;101577.00;6227131;28;20046;-79
2022/08/12 14:43:12;;;;;;;3.33;0.70;;;;;;;35.03;18.50;101581.78;6226748;28;20061;-77
2022/08/12 14:46:17;;;;;;;0.93;0.60;;;;;;;35.11;18.25;101577.91;6226247;28;20060;-78
2022/08/12 14:49:20;;;;;;;0.90;0.85;;;;;;;35.04;18.60;101578.00;6227129;28;20056;-78
2022/08/12 14:52:23;;;;;;;0.80;0.70;;;;;;;35.13;18.39;101573.06;6226765;28;20050;-78
2022/08/12 14:55:32;;;;;;;2.95;0.65;;;;;;;35.21;18.63;101571.97;6226880;28;20409;-78
2022/08/12 14:58:35;;;;;;;0.70;0.70;;;;;;;35.27;18.70;101574.63;6226951;28;20064;-78
2022/08/12 15:01:38;;;;;;;0.52;0.52;;;;;;;35.23;17.71;101572.56;6226172;28;20050;-78
2022/08/12 15:04:40;;;;;;;0.95;0.80;;;;;;;35.06;17.95;101573.13;6226165;28;20438;-78
2022/08/12 15:07:42;;;;;;;0.77;0.60;;;;;;;34.98;18.29;101567.97;6226481;28;20049;-77
2022/08/12 15:10:45;;;;;;;0.68;0.68;;;;;;;34.93;18.44;101572.38;6226292;28;20045;-78
2022/08/12 15:13:49;;;;;;;0.85;0.70;;;;;;;34.83;18.85;101561.94;6226484;28;20061;-78
2022/08/12 15:16:50;;;;;;;3.85;0.68;;;;;;;34.76;18.66;101559.28;6226028;28;20054;-78
2022/08/12 15:19:51;;;;;;;1.15;0.70;;;;;;;34.69;19.30;101566.69;6226099;28;20429;-78
2022/08/12 15:22:53;;;;;;;0.73;0.68;;;;;;;34.66;18.79;101555.38;6226274;28;20057;-78
2022/08/12 15:25:55;;;;;;;1.13;0.90;;;;;;;34.61;19.27;101558.75;6225585;28;20050;-79
2022/08/12 15:28:57;;;;;;;0.63;0.63;;;;;;;34.47;19.48;101554.44;6225544;28;20046;-78
2022/08/12 15:32:00;;;;;;;3.47;0.80;;;;;;;34.36;18.79;101555.13;6225715;28;20056;-77
2022/08/12 15:35:01;;;;;;;2.28;0.70;;;;;;;34.37;19.10;101552.19;6225319;28;20050;-79
2022/08/12 15:38:05;;;;;;;0.70;0.70;;;;;;;34.27;18.42;101562.75;6225574;28;20464;-78
2022/08/12 15:41:09;;;;;;;0.70;0.65;;;;;;;34.07;19.14;101563.69;6225607;28;20046;-77
2022/08/12 15:44:12;;;;;;;0.60;0.60;;;;;;;34.03;18.93;101559.72;6225537;28;20050;-78
2022/08/12 15:47:14;;;;;;;2.60;0.82;;;;;;;33.96;19.58;101552.63;6225282;28;20413;-78
2022/08/12 15:50:15;;;;;;;1.55;0.80;;;;;;;33.94;19.75;101555.53;6225579;28;20053;-78